createdAt,value
2023-03-28T00:02:18.822Z,50.93
2023-03-28T00:04:49.976Z,50.84
2023-03-28T00:07:17.212Z,51.08
2023-03-28T00:09:44.781Z,51.21
2023-03-28T00:12:11.968Z,51.36
2023-03-28T00:14:42.866Z,51.67
2023-03-28T00:17:13.856Z,51.63
2023-03-28T00:19:50.970Z,51.17
2023-03-28T00:22:21.588Z,50.65
2023-03-28T00:24:50.978Z,50.93
2023-03-28T00:27:21.116Z,51.08
2023-03-28T00:29:51.796Z,50.62
2023-03-28T00:32:25.044Z,50.29
2023-03-28T00:34:54.898Z,49.61
2023-03-28T00:37:23.063Z,49.28
2023-03-28T00:39:50.964Z,49.90
2023-03-28T00:42:23.539Z,49.89
2023-03-28T00:44:59.371Z,49.77
2023-03-28T00:47:50.055Z,49.66
2023-03-28T00:50:31.707Z,49.60
2023-03-28T00:53:10.658Z,49.64
2023-03-28T00:55:47.148Z,49.72
2023-03-28T00:58:18.280Z,49.36
2023-03-28T01:00:49.345Z,49.54
2023-03-28T01:03:19.376Z,49.46
2023-03-28T01:05:48.207Z,49.51
2023-03-28T01:08:25.781Z,50.00
2023-03-28T01:10:55.288Z,49.81
2023-03-28T01:13:30.099Z,49.71
2023-03-28T01:15:59.750Z,49.56
2023-03-28T01:18:27.736Z,49.41
2023-03-28T01:21:13.720Z,49.48
2023-03-28T01:23:43.924Z,49.43
2023-03-28T01:26:28.322Z,49.45
2023-03-28T01:29:36.999Z,49.30
2023-03-28T01:32:13.176Z,49.68
2023-03-28T01:35:04.394Z,50.08
2023-03-28T01:38:09.219Z,50.10
2023-03-28T01:40:36.414Z,49.94
2023-03-28T01:43:51.342Z,50.13
2023-03-28T01:46:27.493Z,49.93
2023-03-28T01:48:57.183Z,50.02
2023-03-28T01:51:36.134Z,49.64
2023-03-28T01:54:25.088Z,49.62
2023-03-28T01:57:13.637Z,49.55
2023-03-28T02:00:13.929Z,49.70
2023-03-28T02:03:14.542Z,49.61
2023-03-28T02:06:01.889Z,49.80
2023-03-28T02:08:34.902Z,49.57
2023-03-28T02:11:26.847Z,50.10
2023-03-28T02:14:19.132Z,49.92
2023-03-28T02:17:15.674Z,50.34
2023-03-28T02:20:11.779Z,50.04
2023-03-28T02:23:18.517Z,49.89
2023-03-28T02:26:09.212Z,49.69
2023-03-28T02:29:02.861Z,50.42
2023-03-28T02:31:36.648Z,49.82
2023-03-28T02:34:04.390Z,49.76
2023-03-28T02:36:41.885Z,49.64
2023-03-28T02:39:39.314Z,50.01
2023-03-28T02:42:28.588Z,49.76
2023-03-28T02:45:14.887Z,49.67
2023-03-28T02:47:56.961Z,49.95
2023-03-28T02:51:04.203Z,50.01
2023-03-28T02:54:11.080Z,49.93
2023-03-28T02:56:51.260Z,49.97
2023-03-28T03:02:44.724Z,49.71
2023-03-28T03:05:12.008Z,49.83
2023-03-28T03:07:40.982Z,49.85
2023-03-28T03:10:10.610Z,49.82
2023-03-28T03:12:38.278Z,49.71
2023-03-28T03:15:13.077Z,49.91
2023-03-28T03:17:52.856Z,49.80
2023-03-28T03:20:27.151Z,50.41
2023-03-28T03:22:57.506Z,50.06
2023-03-28T03:25:24.702Z,49.28
2023-03-28T03:27:57.178Z,49.85
2023-03-28T03:30:24.350Z,49.67
2023-03-28T03:33:10.755Z,48.95
2023-03-28T03:35:42.328Z,49.66
2023-03-28T03:38:09.667Z,49.70
2023-03-28T03:40:36.859Z,49.50
2023-03-28T03:43:09.685Z,49.62
2023-03-28T03:45:40.802Z,49.44
2023-03-28T03:48:11.911Z,49.50
2023-03-28T03:50:42.713Z,49.70
2023-03-28T03:53:15.945Z,49.77
2023-03-28T03:55:50.913Z,51.15
2023-03-28T03:58:20.399Z,51.82
2023-03-28T04:00:49.341Z,52.31
2023-03-28T04:03:30.968Z,52.06
2023-03-28T04:05:58.549Z,52.80
2023-03-28T04:08:26.007Z,51.81
2023-03-28T04:10:53.327Z,51.39
2023-03-28T04:13:21.118Z,51.01
2023-03-28T04:15:53.672Z,50.91
2023-03-28T04:18:38.928Z,52.04
2023-03-28T04:21:09.849Z,52.10
2023-03-28T04:23:48.485Z,51.65
2023-03-28T04:26:45.365Z,51.17
2023-03-28T04:29:13.664Z,52.03
2023-03-28T04:31:50.261Z,51.56
2023-03-28T04:34:39.063Z,51.40
2023-03-28T04:37:12.066Z,51.39
2023-03-28T04:39:49.188Z,50.62
2023-03-28T04:42:35.803Z,51.60
2023-03-28T04:45:13.731Z,50.82
2023-03-28T04:47:42.933Z,51.02
2023-03-28T04:50:16.885Z,51.38
2023-03-28T04:52:44.697Z,52.87
2023-03-28T04:55:12.136Z,52.06
2023-03-28T04:57:40.564Z,51.72
2023-03-28T05:00:10.688Z,51.95
2023-03-28T05:03:14.933Z,51.82
2023-03-28T05:05:53.415Z,51.91
2023-03-28T05:08:23.861Z,51.65
2023-03-28T05:10:55.447Z,51.59
2023-03-28T05:13:23.908Z,51.44
2023-03-28T05:16:02.238Z,50.98
2023-03-28T05:18:48.161Z,51.66
2023-03-28T05:21:19.904Z,50.85
2023-03-28T05:23:53.456Z,50.75
2023-03-28T05:26:24.852Z,51.50
2023-03-28T05:28:52.023Z,51.60
2023-03-28T05:31:21.867Z,50.77
2023-03-28T05:34:10.124Z,51.36
2023-03-28T05:36:44.696Z,50.81
2023-03-28T05:39:21.978Z,51.05
2023-03-28T05:41:50.895Z,50.62
2023-03-28T05:44:20.404Z,50.18
2023-03-28T05:47:07.530Z,49.86
2023-03-28T05:49:34.864Z,50.08
2023-03-28T05:52:02.901Z,49.67
2023-03-28T05:54:30.520Z,49.75
2023-03-28T05:56:57.660Z,49.43
2023-03-28T05:59:26.234Z,49.92
2023-03-28T06:01:53.658Z,49.83
2023-03-28T06:04:21.991Z,49.54
2023-03-28T06:06:51.434Z,49.76
2023-03-28T06:09:25.023Z,49.45
2023-03-28T06:11:59.856Z,49.43
2023-03-28T06:14:27.888Z,49.43
2023-03-28T06:16:57.870Z,48.26
2023-03-28T06:19:27.559Z,48.38
2023-03-28T06:21:58.876Z,48.39
2023-03-28T06:24:26.186Z,48.20
2023-03-28T06:26:54.927Z,48.67
2023-03-28T06:29:24.453Z,49.07
2023-03-28T06:31:59.946Z,48.31
2023-03-28T06:34:30.063Z,48.46
2023-03-28T06:37:02.031Z,48.46
2023-03-28T06:39:45.702Z,48.57
2023-03-28T06:42:15.338Z,48.06
2023-03-28T06:44:52.843Z,47.67
2023-03-28T06:47:37.311Z,48.36
2023-03-28T06:50:05.778Z,47.60
2023-03-28T06:52:55.792Z,47.64
2023-03-28T06:55:23.185Z,47.29
2023-03-28T06:57:53.015Z,47.78
2023-03-28T07:00:44.642Z,47.97
2023-03-28T07:03:32.829Z,47.71
2023-03-28T07:06:06.207Z,47.53
2023-03-28T07:08:33.645Z,47.33
2023-03-28T07:11:03.112Z,46.96
2023-03-28T07:13:31.096Z,46.88
2023-03-28T07:16:12.869Z,46.60
2023-03-28T07:18:43.710Z,46.52
2023-03-28T07:21:19.310Z,47.53
2023-03-28T07:23:46.968Z,47.54
2023-03-28T07:26:19.587Z,47.12
2023-03-28T07:28:46.739Z,46.97
2023-03-28T07:31:14.180Z,47.86
2023-03-28T07:33:41.491Z,47.77
2023-03-28T07:36:15.881Z,47.75
2023-03-28T07:38:48.459Z,48.24
2023-03-28T07:41:17.174Z,48.33
2023-03-28T07:43:45.027Z,47.72
2023-03-28T07:46:16.797Z,48.21
2023-03-28T07:48:49.362Z,47.48
2023-03-28T07:51:19.835Z,47.38
2023-03-28T07:53:47.186Z,47.29
2023-03-28T07:56:15.094Z,47.32
2023-03-28T07:59:05.795Z,48.70
2023-03-28T08:01:33.712Z,48.34
2023-03-28T08:04:05.608Z,48.18
2023-03-28T08:06:42.215Z,47.92
2023-03-28T08:09:11.942Z,47.21
2023-03-28T08:11:45.452Z,47.01
2023-03-28T08:14:15.469Z,47.80
2023-03-28T08:16:44.133Z,47.46
2023-03-28T08:19:12.252Z,49.28
2023-03-28T08:22:14.482Z,48.37
2023-03-28T08:24:51.448Z,47.30
2023-03-28T08:27:21.732Z,47.33
2023-03-28T08:29:53.017Z,46.63
2023-03-28T08:32:20.381Z,47.38
2023-03-28T08:34:48.292Z,46.59
2023-03-28T08:37:18.615Z,45.84
2023-03-28T08:39:48.854Z,44.80
2023-03-28T08:42:57.292Z,44.00
2023-03-28T08:45:43.448Z,43.44
2023-03-28T08:48:28.315Z,42.77
2023-03-28T08:51:18.373Z,42.10
2023-03-28T08:54:19.686Z,40.68
2023-03-28T08:56:58.091Z,41.01
2023-03-28T09:00:09.333Z,40.86
2023-03-28T09:02:36.797Z,41.39
2023-03-28T09:05:25.198Z,42.01
2023-03-28T09:08:20.809Z,42.14
2023-03-28T09:11:04.890Z,42.48
2023-03-28T09:13:50.571Z,41.81
2023-03-28T09:16:45.749Z,42.00
2023-03-28T09:19:53.070Z,42.69
2023-03-28T09:23:22.602Z,42.30
2023-03-28T09:26:33.149Z,42.96
2023-03-28T09:29:09.230Z,42.64
2023-03-28T09:31:49.660Z,42.95
2023-03-28T09:34:27.879Z,43.01
2023-03-28T09:37:05.941Z,43.18
2023-03-28T09:39:45.319Z,43.27
2023-03-28T09:42:45.052Z,42.30
2023-03-28T09:46:12.181Z,42.59
2023-03-28T09:49:02.174Z,42.11
2023-03-28T09:51:32.913Z,41.18
2023-03-28T09:54:06.225Z,39.98
2023-03-28T09:56:38.052Z,39.71
2023-03-28T09:59:31.183Z,39.61
2023-03-28T10:02:07.751Z,40.24
2023-03-28T10:04:40.181Z,39.87
2023-03-28T10:07:48.489Z,39.70
2023-03-28T10:10:25.397Z,39.62
2023-03-28T10:13:04.830Z,39.21
2023-03-28T10:15:40.836Z,40.12
2023-03-28T10:18:22.138Z,41.62
2023-03-28T10:21:18.873Z,41.68
2023-03-28T10:24:02.599Z,41.57
2023-03-28T10:26:34.406Z,41.24
2023-03-28T10:29:09.232Z,40.82
2023-03-28T10:31:39.768Z,41.08
2023-03-28T10:34:31.262Z,40.03
2023-03-28T10:37:04.506Z,40.31
2023-03-28T10:40:02.698Z,41.27
2023-03-28T10:42:57.480Z,41.54
2023-03-28T10:45:51.649Z,41.94
2023-03-28T10:48:42.084Z,42.29
2023-03-28T10:51:19.811Z,43.61
2023-03-28T10:53:57.309Z,44.94
2023-03-28T10:56:42.968Z,44.94
2023-03-28T10:59:41.510Z,45.72
2023-03-28T11:02:23.170Z,46.17
2023-03-28T11:05:02.112Z,47.46
2023-03-28T11:07:54.977Z,48.10
2023-03-28T11:11:37.231Z,48.68
2023-03-28T11:14:45.195Z,47.93
2023-03-28T11:17:25.034Z,49.42
2023-03-28T11:20:00.548Z,48.61
2023-03-28T11:23:06.225Z,47.82
2023-03-28T11:25:58.059Z,46.73
2023-03-28T11:29:13.983Z,46.39
2023-03-28T11:32:13.500Z,46.53
2023-03-28T11:34:52.761Z,45.83
2023-03-28T11:37:29.880Z,48.62
2023-03-28T11:40:19.995Z,47.05
2023-03-28T11:43:05.117Z,48.75
2023-03-28T11:45:52.942Z,49.32
2023-03-28T11:48:31.536Z,47.48
2023-03-28T11:51:27.785Z,48.24
2023-03-28T11:54:09.866Z,50.71
2023-03-28T11:57:29.629Z,50.88
2023-03-28T12:00:32.143Z,50.23
2023-03-28T12:03:43.271Z,49.76
2023-03-28T12:06:30.956Z,51.35
2023-03-28T12:09:07.054Z,51.08
2023-03-28T12:14:50.674Z,49.57
2023-03-28T12:17:35.189Z,50.36
2023-03-28T12:20:02.735Z,50.82
2023-03-28T12:22:52.813Z,50.52
2023-03-28T12:25:51.212Z,50.47
2023-03-28T12:28:43.849Z,50.80
2023-03-28T12:31:33.588Z,51.55
2023-03-28T12:34:43.743Z,51.91
2023-03-28T12:37:29.343Z,48.57
2023-03-28T12:40:33.530Z,50.57
2023-03-28T12:43:01.853Z,49.77
2023-03-28T12:45:43.619Z,48.36
2023-03-28T12:48:19.724Z,48.25
2023-03-28T12:50:56.770Z,48.99
2023-03-28T12:53:32.762Z,50.33
2023-03-28T12:56:03.637Z,51.31
2023-03-28T12:58:36.777Z,51.44
2023-03-28T13:01:39.350Z,51.02
2023-03-28T13:04:46.700Z,52.46
2023-03-28T13:07:35.781Z,52.30
2023-03-28T13:10:59.893Z,52.84
2023-03-28T13:13:40.497Z,52.83
2023-03-28T13:16:40.831Z,52.34
2023-03-28T13:19:18.433Z,52.67
2023-03-28T13:21:58.471Z,53.62
2023-03-28T13:24:26.163Z,53.17
2023-03-28T13:26:59.976Z,53.87
2023-03-28T13:29:48.023Z,53.91
2023-03-28T13:32:23.822Z,54.31
2023-03-28T13:35:04.456Z,54.13
2023-03-28T13:37:44.199Z,53.71
2023-03-28T13:40:50.881Z,54.30
2023-03-28T13:43:29.723Z,54.40
2023-03-28T13:46:02.020Z,53.00
2023-03-28T13:48:35.063Z,53.95
2023-03-28T13:51:07.012Z,53.04
2023-03-28T13:53:47.412Z,54.22
2023-03-28T13:56:28.113Z,53.14
2023-03-28T13:58:58.866Z,53.53
2023-03-28T14:01:44.061Z,53.98
2023-03-28T14:04:19.756Z,54.25
2023-03-28T14:07:02.951Z,55.28
2023-03-28T14:09:33.248Z,54.60
2023-03-28T14:12:14.578Z,54.86
2023-03-28T14:14:59.238Z,54.00
2023-03-28T14:17:33.886Z,53.51
2023-03-28T14:20:05.787Z,53.16
2023-03-28T14:22:45.759Z,52.73
2023-03-28T14:25:22.926Z,52.07
2023-03-28T14:27:52.789Z,52.35
2023-03-28T14:30:39.425Z,53.32
2023-03-28T14:33:33.165Z,54.40
2023-03-28T14:36:06.584Z,54.62
2023-03-28T14:38:36.378Z,54.17
2023-03-28T14:41:25.176Z,53.89
2023-03-28T14:43:55.642Z,54.92
2023-03-28T14:46:26.922Z,53.89
2023-03-28T14:48:59.649Z,53.12
2023-03-28T14:51:31.026Z,53.42
2023-03-28T14:53:58.147Z,53.68
2023-03-28T14:56:35.055Z,53.94
2023-03-28T14:59:04.593Z,52.41
2023-03-28T15:01:34.037Z,52.85
2023-03-28T15:04:19.182Z,52.27
2023-03-28T15:06:55.855Z,53.64
2023-03-28T15:09:34.240Z,52.05
2023-03-28T15:12:07.060Z,53.01
2023-03-28T15:14:41.630Z,52.61
2023-03-28T15:17:24.106Z,52.74
2023-03-28T15:20:14.048Z,53.23
2023-03-28T15:22:42.076Z,52.27
2023-03-28T15:25:16.392Z,51.42
2023-03-28T15:27:54.577Z,50.43
2023-03-28T15:30:54.916Z,52.29
2023-03-28T15:33:26.212Z,50.50
2023-03-28T15:36:20.120Z,47.55
2023-03-28T15:38:50.674Z,47.14
2023-03-28T15:41:34.865Z,47.33
2023-03-28T15:44:28.806Z,47.96
2023-03-28T15:47:03.833Z,45.50
2023-03-28T15:49:38.928Z,45.66
2023-03-28T15:52:21.055Z,45.91
2023-03-28T15:54:56.076Z,46.86
2023-03-28T15:57:40.019Z,47.99
2023-03-28T16:00:30.710Z,48.21
2023-03-28T16:03:24.350Z,49.10
2023-03-28T16:06:23.110Z,50.42
2023-03-28T16:09:14.758Z,48.64
2023-03-28T16:11:42.081Z,48.42
2023-03-28T16:14:36.524Z,49.11
2023-03-28T16:17:29.189Z,49.60
2023-03-28T16:20:20.342Z,49.59
2023-03-28T16:22:48.958Z,50.46
2023-03-28T16:25:16.069Z,49.32
2023-03-28T16:27:43.747Z,50.49
2023-03-28T16:30:27.368Z,49.20
2023-03-28T16:32:56.907Z,49.83
2023-03-28T16:35:25.091Z,50.21
2023-03-28T16:37:53.220Z,48.95
2023-03-28T16:40:29.406Z,48.65
2023-03-28T16:43:00.249Z,48.46
2023-03-28T16:45:30.592Z,47.80
2023-03-28T16:47:58.068Z,47.49
2023-03-28T16:50:25.283Z,48.41
2023-03-28T16:52:52.687Z,49.26
2023-03-28T16:55:19.781Z,48.32
2023-03-28T16:57:49.360Z,48.10
2023-03-28T17:00:20.266Z,48.83
2023-03-28T17:02:48.203Z,48.42
2023-03-28T17:05:16.972Z,48.94
2023-03-28T17:07:44.182Z,49.82
2023-03-28T17:10:14.609Z,49.45
2023-03-28T17:12:47.987Z,50.19
2023-03-28T17:15:15.592Z,52.21
2023-03-28T17:17:44.195Z,51.71
2023-03-28T17:20:11.924Z,51.74
2023-03-28T17:22:42.576Z,51.24
2023-03-28T17:25:10.211Z,51.76
2023-03-28T17:27:40.744Z,50.36
2023-03-28T17:30:16.495Z,50.22
2023-03-28T17:32:43.897Z,50.73
2023-03-28T17:35:12.400Z,50.39
2023-03-28T17:37:43.217Z,51.68
2023-03-28T17:40:10.986Z,51.91
2023-03-28T17:42:38.528Z,51.33
2023-03-28T17:45:09.279Z,51.27
2023-03-28T17:47:36.678Z,51.54
2023-03-28T17:50:03.966Z,51.07
2023-03-28T17:52:31.995Z,52.06
2023-03-28T17:55:15.176Z,51.65
2023-03-28T17:57:56.633Z,50.35
2023-03-28T18:00:29.022Z,51.46
2023-03-28T18:03:17.413Z,52.88
2023-03-28T18:06:02.590Z,52.61
2023-03-28T18:08:31.748Z,52.28
2023-03-28T18:11:08.100Z,52.01
2023-03-28T18:16:20.035Z,52.94
2023-03-28T18:18:55.099Z,53.73
2023-03-28T18:21:22.297Z,53.21
2023-03-28T18:23:49.786Z,54.76
2023-03-28T18:26:17.498Z,55.68
2023-03-28T18:28:47.477Z,54.93
2023-03-28T18:31:19.715Z,54.06
2023-03-28T18:33:49.204Z,54.63
2023-03-28T18:36:19.297Z,54.89
2023-03-28T18:38:50.708Z,54.48
2023-03-28T18:41:17.874Z,56.49
2023-03-28T18:43:45.839Z,55.44
2023-03-28T18:46:16.357Z,54.30
2023-03-28T18:48:45.029Z,54.48
2023-03-28T18:51:12.631Z,55.31
2023-03-28T18:53:47.645Z,55.06
2023-03-28T18:56:15.383Z,54.56
2023-03-28T18:58:43.998Z,53.17
2023-03-28T19:01:14.108Z,55.07
2023-03-28T19:03:43.282Z,53.48
2023-03-28T19:06:19.000Z,54.59
2023-03-28T19:08:47.617Z,53.54
2023-03-28T19:11:17.140Z,53.59
2023-03-28T19:13:44.414Z,54.33
2023-03-28T19:16:16.684Z,53.82
2023-03-28T19:18:48.955Z,52.50
2023-03-28T19:21:17.294Z,53.14
2023-03-28T19:23:51.717Z,53.23
2023-03-28T19:26:25.160Z,53.07
2023-03-28T19:29:05.013Z,51.59
2023-03-28T19:31:35.768Z,51.88
2023-03-28T19:34:03.558Z,52.36
2023-03-28T19:36:33.936Z,51.79
2023-03-28T19:39:02.437Z,50.53
2023-03-28T19:41:31.729Z,50.46
2023-03-28T19:44:04.558Z,49.79
2023-03-28T19:46:35.468Z,50.05
2023-03-28T19:49:07.190Z,50.53
2023-03-28T19:51:37.759Z,49.65
2023-03-28T19:54:05.141Z,49.04
2023-03-28T19:56:32.626Z,48.31
2023-03-28T19:58:59.894Z,48.01
2023-03-28T20:01:27.415Z,47.72
2023-03-28T20:03:54.674Z,47.11
2023-03-28T20:06:23.877Z,46.68
2023-03-28T20:08:54.119Z,47.05
2023-03-28T20:11:22.344Z,46.04
2023-03-28T20:13:52.640Z,46.34
2023-03-28T20:16:23.341Z,45.85
2023-03-28T20:21:57.264Z,45.76
2023-03-28T20:24:27.782Z,45.85
2023-03-28T20:26:57.657Z,45.80
2023-03-28T20:29:31.373Z,45.45
2023-03-28T20:35:10.150Z,44.84
2023-03-28T20:37:38.046Z,44.65
2023-03-28T20:40:17.576Z,45.04
2023-03-28T20:42:54.547Z,44.56
2023-03-28T20:45:29.432Z,44.44
2023-03-28T20:48:06.453Z,43.51
2023-03-28T20:50:41.711Z,43.55
2023-03-28T20:53:15.280Z,42.97
2023-03-28T20:55:45.784Z,42.29
2023-03-28T20:58:14.400Z,41.93
2023-03-28T21:00:48.020Z,41.37
2023-03-28T21:03:18.934Z,40.62
2023-03-28T21:05:58.425Z,40.59
2023-03-28T21:08:31.260Z,40.29
2023-03-28T21:10:59.013Z,40.37
2023-03-28T21:13:28.629Z,40.25
2023-03-28T21:15:58.829Z,40.12
2023-03-28T21:18:26.311Z,39.68
2023-03-28T21:20:56.828Z,39.85
2023-03-28T21:23:24.844Z,40.79
2023-03-28T21:25:55.842Z,40.47
2023-03-28T21:28:23.644Z,40.43
2023-03-28T21:31:02.034Z,39.83
2023-03-28T21:33:30.643Z,40.32
2023-03-28T21:36:02.138Z,40.28
2023-03-28T21:38:31.020Z,40.20
2023-03-28T21:40:59.566Z,40.22
2023-03-28T21:43:31.683Z,40.44
2023-03-28T21:45:59.554Z,40.18
2023-03-28T21:48:27.278Z,40.59
2023-03-28T21:51:00.043Z,40.76
2023-03-28T21:53:30.235Z,40.66
2023-03-28T21:55:59.447Z,40.50
2023-03-28T21:58:33.308Z,40.93
2023-03-28T22:01:03.103Z,41.02
2023-03-28T22:03:31.887Z,40.98
2023-03-28T22:05:59.138Z,40.98
2023-03-28T22:08:27.566Z,41.29
2023-03-28T22:11:01.601Z,41.09
2023-03-28T22:13:30.017Z,41.49
2023-03-28T22:16:01.013Z,41.16
2023-03-28T22:18:30.820Z,41.24
2023-03-28T22:21:02.669Z,41.45
2023-03-28T22:23:30.218Z,41.56
2023-03-28T22:25:58.782Z,41.40
2023-03-28T22:28:26.960Z,42.27
2023-03-28T22:30:55.417Z,41.93
2023-03-28T22:33:25.694Z,42.14
2023-03-28T22:35:53.467Z,42.04
2023-03-28T22:38:20.902Z,42.30
2023-03-28T22:40:50.398Z,42.64
2023-03-28T22:43:20.635Z,42.47
2023-03-28T22:45:47.898Z,42.84
2023-03-28T22:48:15.776Z,43.00
2023-03-28T22:50:44.565Z,42.94
2023-03-28T22:53:16.425Z,43.08
2023-03-28T22:55:47.193Z,43.27
2023-03-28T22:58:15.063Z,43.36
2023-03-28T23:00:46.285Z,43.43
2023-03-28T23:03:14.344Z,43.50
2023-03-28T23:05:41.596Z,43.20
2023-03-28T23:08:10.706Z,43.72
2023-03-28T23:10:38.604Z,43.60
2023-03-28T23:13:06.088Z,43.57
2023-03-28T23:15:33.307Z,44.15
2023-03-28T23:18:04.039Z,44.06
2023-03-28T23:20:31.649Z,44.02
2023-03-28T23:22:58.939Z,43.93
2023-03-28T23:25:30.136Z,44.04
2023-03-28T23:27:57.425Z,44.32
2023-03-28T23:30:24.568Z,44.25
2023-03-28T23:32:54.297Z,44.33
2023-03-28T23:35:24.700Z,44.28
2023-03-28T23:37:53.443Z,44.85
2023-03-28T23:40:23.496Z,44.41
2023-03-28T23:42:50.924Z,44.85
2023-03-28T23:45:18.585Z,44.66
2023-03-28T23:47:46.363Z,44.90
2023-03-28T23:50:14.005Z,44.80
2023-03-28T23:52:41.253Z,44.99
2023-03-28T23:55:09.222Z,45.06
2023-03-28T23:57:36.992Z,45.07
